sensor_id;sensor_type;location;lat;lon;timestamp;P1;durP1;ratioP1;P2;durP2;ratioP2
71671;SDS011;62112;45.638;11.714;2022-09-09T00:01:11;4.57;;;2.08;;
71671;SDS011;62112;45.638;11.714;2022-09-09T00:06:25;4.30;;;2.00;;
71671;SDS011;62112;45.638;11.714;2022-09-09T00:09:02;4.73;;;2.20;;
71671;SDS011;62112;45.638;11.714;2022-09-09T00:17:03;5.47;;;1.90;;
71671;SDS011;62112;45.638;11.714;2022-09-09T00:19:48;4.40;;;2.10;;
71671;SDS011;62112;45.638;11.714;2022-09-09T00:22:25;3.73;;;2.00;;
71671;SDS011;62112;45.638;11.714;2022-09-09T00:24:56;4.85;;;2.15;;
71671;SDS011;62112;45.638;11.714;2022-09-09T00:27:48;4.10;;;1.98;;
71671;SDS011;62112;45.638;11.714;2022-09-09T00:30:19;3.90;;;1.80;;
71671;SDS011;62112;45.638;11.714;2022-09-09T00:32:58;5.45;;;2.15;;
71671;SDS011;62112;45.638;11.714;2022-09-09T00:35:36;4.90;;;2.10;;
71671;SDS011;62112;45.638;11.714;2022-09-09T00:43:33;5.38;;;2.10;;
71671;SDS011;62112;45.638;11.714;2022-09-09T00:57:23;4.00;;;1.90;;
71671;SDS011;62112;45.638;11.714;2022-09-09T01:00:17;4.63;;;2.28;;
71671;SDS011;62112;45.638;11.714;2022-09-09T01:05:48;5.85;;;1.88;;
71671;SDS011;62112;45.638;11.714;2022-09-09T01:10:59;3.83;;;2.00;;
71671;SDS011;62112;45.638;11.714;2022-09-09T01:13:33;4.50;;;1.85;;
71671;SDS011;62112;45.638;11.714;2022-09-09T01:16:02;5.85;;;2.10;;
71671;SDS011;62112;45.638;11.714;2022-09-09T01:18:39;4.63;;;2.10;;
71671;SDS011;62112;45.638;11.714;2022-09-09T01:26:51;5.05;;;2.00;;
71671;SDS011;62112;45.638;11.714;2022-09-09T01:29:20;5.45;;;2.30;;
71671;SDS011;62112;45.638;11.714;2022-09-09T01:31:58;4.07;;;1.92;;
71671;SDS011;62112;45.638;11.714;2022-09-09T01:34:30;5.75;;;2.05;;
71671;SDS011;62112;45.638;11.714;2022-09-09T01:37:05;3.97;;;2.00;;
71671;SDS011;62112;45.638;11.714;2022-09-09T01:39:34;4.90;;;2.33;;
71671;SDS011;62112;45.638;11.714;2022-09-09T01:42:03;5.07;;;2.45;;
71671;SDS011;62112;45.638;11.714;2022-09-09T01:44:31;4.38;;;2.13;;
71671;SDS011;62112;45.638;11.714;2022-09-09T01:46:58;4.68;;;2.50;;
71671;SDS011;62112;45.638;11.714;2022-09-09T01:49:24;4.50;;;2.33;;
71671;SDS011;62112;45.638;11.714;2022-09-09T01:51:51;5.30;;;2.30;;
71671;SDS011;62112;45.638;11.714;2022-09-09T01:54:19;4.80;;;2.47;;
71671;SDS011;62112;45.638;11.714;2022-09-09T02:02:10;5.90;;;2.47;;
71671;SDS011;62112;45.638;11.714;2022-09-09T02:04:48;6.10;;;2.40;;
71671;SDS011;62112;45.638;11.714;2022-09-09T02:13:00;5.13;;;2.38;;
71671;SDS011;62112;45.638;11.714;2022-09-09T02:18:10;5.60;;;2.40;;
71671;SDS011;62112;45.638;11.714;2022-09-09T02:20:39;5.55;;;2.42;;
71671;SDS011;62112;45.638;11.714;2022-09-09T02:23:07;4.38;;;2.20;;
71671;SDS011;62112;45.638;11.714;2022-09-09T02:25:35;4.82;;;2.30;;
71671;SDS011;62112;45.638;11.714;2022-09-09T02:28:03;5.40;;;2.40;;
71671;SDS011;62112;45.638;11.714;2022-09-09T02:30:33;5.22;;;2.47;;
71671;SDS011;62112;45.638;11.714;2022-09-09T02:33:00;5.65;;;2.40;;
71671;SDS011;62112;45.638;11.714;2022-09-09T02:35:31;5.60;;;2.40;;
71671;SDS011;62112;45.638;11.714;2022-09-09T02:38:02;5.45;;;2.30;;
71671;SDS011;62112;45.638;11.714;2022-09-09T02:40:38;5.53;;;2.23;;
71671;SDS011;62112;45.638;11.714;2022-09-09T02:43:04;5.85;;;2.30;;
71671;SDS011;62112;45.638;11.714;2022-09-09T02:48:30;5.05;;;2.33;;
71671;SDS011;62112;45.638;11.714;2022-09-09T02:51:04;7.50;;;2.50;;
71671;SDS011;62112;45.638;11.714;2022-09-09T02:56:13;5.95;;;2.80;;
71671;SDS011;62112;45.638;11.714;2022-09-09T02:58:42;5.70;;;2.55;;
71671;SDS011;62112;45.638;11.714;2022-09-09T03:01:08;5.60;;;2.40;;
71671;SDS011;62112;45.638;11.714;2022-09-09T03:03:34;5.17;;;2.40;;
71671;SDS011;62112;45.638;11.714;2022-09-09T03:06:00;5.63;;;2.30;;
71671;SDS011;62112;45.638;11.714;2022-09-09T03:08:26;9.48;;;2.47;;
71671;SDS011;62112;45.638;11.714;2022-09-09T03:10:57;5.32;;;2.25;;
71671;SDS011;62112;45.638;11.714;2022-09-09T03:13:24;5.95;;;2.40;;
71671;SDS011;62112;45.638;11.714;2022-09-09T03:15:50;6.17;;;2.60;;
71671;SDS011;62112;45.638;11.714;2022-09-09T03:18:16;6.07;;;2.40;;
71671;SDS011;62112;45.638;11.714;2022-09-09T03:20:42;5.93;;;2.45;;
71671;SDS011;62112;45.638;11.714;2022-09-09T03:23:08;6.13;;;2.40;;
71671;SDS011;62112;45.638;11.714;2022-09-09T03:25:34;5.53;;;2.30;;
71671;SDS011;62112;45.638;11.714;2022-09-09T03:28:00;5.93;;;2.50;;
71671;SDS011;62112;45.638;11.714;2022-09-09T03:30:27;5.40;;;2.60;;
71671;SDS011;62112;45.638;11.714;2022-09-09T03:32:53;4.47;;;2.28;;
71671;SDS011;62112;45.638;11.714;2022-09-09T03:35:20;4.93;;;2.10;;
71671;SDS011;62112;45.638;11.714;2022-09-09T03:37:46;4.75;;;2.22;;
71671;SDS011;62112;45.638;11.714;2022-09-09T03:40:12;6.05;;;2.20;;
71671;SDS011;62112;45.638;11.714;2022-09-09T03:42:39;6.00;;;2.22;;
71671;SDS011;62112;45.638;11.714;2022-09-09T03:45:05;5.50;;;2.58;;
71671;SDS011;62112;45.638;11.714;2022-09-09T03:47:34;5.50;;;2.40;;
71671;SDS011;62112;45.638;11.714;2022-09-09T03:50:00;5.60;;;2.30;;
71671;SDS011;62112;45.638;11.714;2022-09-09T03:52:26;5.78;;;2.20;;
71671;SDS011;62112;45.638;11.714;2022-09-09T03:54:52;4.63;;;2.13;;
71671;SDS011;62112;45.638;11.714;2022-09-09T03:57:19;5.13;;;2.20;;
71671;SDS011;62112;45.638;11.714;2022-09-09T03:59:45;4.75;;;2.30;;
71671;SDS011;62112;45.638;11.714;2022-09-09T04:02:11;5.18;;;2.40;;
71671;SDS011;62112;45.638;11.714;2022-09-09T04:04:37;5.32;;;2.33;;
71671;SDS011;62112;45.638;11.714;2022-09-09T04:07:03;4.30;;;2.20;;
71671;SDS011;62112;45.638;11.714;2022-09-09T04:09:31;5.32;;;2.33;;
71671;SDS011;62112;45.638;11.714;2022-09-09T04:11:57;4.28;;;2.30;;
71671;SDS011;62112;45.638;11.714;2022-09-09T04:14:22;4.93;;;2.50;;
71671;SDS011;62112;45.638;11.714;2022-09-09T04:16:49;4.47;;;2.22;;
71671;SDS011;62112;45.638;11.714;2022-09-09T04:19:16;6.40;;;2.70;;
71671;SDS011;62112;45.638;11.714;2022-09-09T04:21:45;5.00;;;2.50;;
71671;SDS011;62112;45.638;11.714;2022-09-09T04:24:17;5.93;;;2.30;;
71671;SDS011;62112;45.638;11.714;2022-09-09T04:26:48;6.45;;;2.50;;
71671;SDS011;62112;45.638;11.714;2022-09-09T04:29:15;6.72;;;2.50;;
71671;SDS011;62112;45.638;11.714;2022-09-09T04:31:41;6.55;;;2.50;;
71671;SDS011;62112;45.638;11.714;2022-09-09T04:34:10;7.07;;;2.50;;
71671;SDS011;62112;45.638;11.714;2022-09-09T04:36:38;5.38;;;2.40;;
71671;SDS011;62112;45.638;11.714;2022-09-09T04:39:13;4.93;;;2.40;;
71671;SDS011;62112;45.638;11.714;2022-09-09T04:41:43;5.90;;;2.30;;
71671;SDS011;62112;45.638;11.714;2022-09-09T04:44:09;8.37;;;2.50;;
71671;SDS011;62112;45.638;11.714;2022-09-09T04:46:35;5.10;;;2.33;;
71671;SDS011;62112;45.638;11.714;2022-09-09T04:49:01;5.88;;;2.50;;
71671;SDS011;62112;45.638;11.714;2022-09-09T04:51:27;5.93;;;2.53;;
71671;SDS011;62112;45.638;11.714;2022-09-09T04:53:53;5.53;;;2.67;;
71671;SDS011;62112;45.638;11.714;2022-09-09T04:56:19;5.40;;;2.40;;
71671;SDS011;62112;45.638;11.714;2022-09-09T04:58:45;7.45;;;2.50;;
71671;SDS011;62112;45.638;11.714;2022-09-09T05:01:15;5.90;;;2.50;;
71671;SDS011;62112;45.638;11.714;2022-09-09T05:03:43;7.57;;;2.45;;
71671;SDS011;62112;45.638;11.714;2022-09-09T05:06:19;6.63;;;2.72;;
71671;SDS011;62112;45.638;11.714;2022-09-09T05:08:46;6.35;;;2.42;;
71671;SDS011;62112;45.638;11.714;2022-09-09T05:11:18;6.20;;;2.70;;
71671;SDS011;62112;45.638;11.714;2022-09-09T05:13:48;6.82;;;2.50;;
71671;SDS011;62112;45.638;11.714;2022-09-09T05:16:19;6.57;;;2.58;;
71671;SDS011;62112;45.638;11.714;2022-09-09T05:18:46;6.95;;;2.85;;
71671;SDS011;62112;45.638;11.714;2022-09-09T05:21:14;6.30;;;2.55;;
71671;SDS011;62112;45.638;11.714;2022-09-09T05:23:42;7.07;;;2.50;;
71671;SDS011;62112;45.638;11.714;2022-09-09T05:26:15;5.30;;;2.60;;
71671;SDS011;62112;45.638;11.714;2022-09-09T05:28:47;5.28;;;2.47;;
71671;SDS011;62112;45.638;11.714;2022-09-09T05:31:14;6.18;;;2.60;;
71671;SDS011;62112;45.638;11.714;2022-09-09T05:33:43;5.75;;;2.70;;
71671;SDS011;62112;45.638;11.714;2022-09-09T05:36:15;4.87;;;2.57;;
71671;SDS011;62112;45.638;11.714;2022-09-09T05:38:44;5.90;;;2.60;;
71671;SDS011;62112;45.638;11.714;2022-09-09T05:41:12;5.50;;;2.55;;
71671;SDS011;62112;45.638;11.714;2022-09-09T05:43:41;6.07;;;2.40;;
71671;SDS011;62112;45.638;11.714;2022-09-09T05:46:10;6.03;;;2.58;;
71671;SDS011;62112;45.638;11.714;2022-09-09T05:48:41;6.53;;;2.60;;
71671;SDS011;62112;45.638;11.714;2022-09-09T05:51:12;7.78;;;2.80;;
71671;SDS011;62112;45.638;11.714;2022-09-09T05:53:41;5.95;;;2.70;;
71671;SDS011;62112;45.638;11.714;2022-09-09T05:58:36;5.05;;;2.60;;
71671;SDS011;62112;45.638;11.714;2022-09-09T06:01:06;5.73;;;2.70;;
71671;SDS011;62112;45.638;11.714;2022-09-09T06:03:37;7.03;;;2.83;;
71671;SDS011;62112;45.638;11.714;2022-09-09T06:06:05;5.45;;;2.67;;
71671;SDS011;62112;45.638;11.714;2022-09-09T06:08:36;5.95;;;2.60;;
71671;SDS011;62112;45.638;11.714;2022-09-09T06:11:05;6.85;;;2.70;;
71671;SDS011;62112;45.638;11.714;2022-09-09T06:13:34;5.87;;;2.70;;
71671;SDS011;62112;45.638;11.714;2022-09-09T06:16:04;5.78;;;2.75;;
71671;SDS011;62112;45.638;11.714;2022-09-09T06:18:32;5.63;;;2.85;;
71671;SDS011;62112;45.638;11.714;2022-09-09T06:20:59;4.68;;;2.55;;
71671;SDS011;62112;45.638;11.714;2022-09-09T06:23:28;5.78;;;2.70;;
71671;SDS011;62112;45.638;11.714;2022-09-09T06:26:27;9.17;;;2.73;;
71671;SDS011;62112;45.638;11.714;2022-09-09T06:28:48;5.35;;;2.60;;
71671;SDS011;62112;45.638;11.714;2022-09-09T06:31:16;6.53;;;2.75;;
71671;SDS011;62112;45.638;11.714;2022-09-09T06:33:46;6.45;;;2.70;;
71671;SDS011;62112;45.638;11.714;2022-09-09T06:38:42;7.60;;;2.75;;
71671;SDS011;62112;45.638;11.714;2022-09-09T06:41:08;5.70;;;2.70;;
71671;SDS011;62112;45.638;11.714;2022-09-09T06:43:35;5.45;;;2.80;;
71671;SDS011;62112;45.638;11.714;2022-09-09T06:48:41;6.07;;;2.77;;
71671;SDS011;62112;45.638;11.714;2022-09-09T06:51:12;6.65;;;2.97;;
71671;SDS011;62112;45.638;11.714;2022-09-09T06:53:42;6.00;;;3.10;;
71671;SDS011;62112;45.638;11.714;2022-09-09T06:58:35;6.00;;;3.10;;
71671;SDS011;62112;45.638;11.714;2022-09-09T07:01:05;7.75;;;3.00;;
71671;SDS011;62112;45.638;11.714;2022-09-09T07:03:32;4.88;;;2.70;;
71671;SDS011;62112;45.638;11.714;2022-09-09T07:05:58;5.15;;;2.65;;
71671;SDS011;62112;45.638;11.714;2022-09-09T07:08:25;5.80;;;2.83;;
71671;SDS011;62112;45.638;11.714;2022-09-09T07:10:51;6.67;;;2.70;;
71671;SDS011;62112;45.638;11.714;2022-09-09T07:13:25;5.50;;;2.63;;
71671;SDS011;62112;45.638;11.714;2022-09-09T07:15:51;7.53;;;2.95;;
71671;SDS011;62112;45.638;11.714;2022-09-09T07:18:17;5.28;;;2.65;;
71671;SDS011;62112;45.638;11.714;2022-09-09T07:20:52;6.53;;;2.90;;
71671;SDS011;62112;45.638;11.714;2022-09-09T07:23:21;9.07;;;3.17;;
71671;SDS011;62112;45.638;11.714;2022-09-09T07:25:47;6.55;;;3.22;;
71671;SDS011;62112;45.638;11.714;2022-09-09T07:28:13;8.88;;;3.78;;
71671;SDS011;62112;45.638;11.714;2022-09-09T07:30:39;7.43;;;3.45;;
71671;SDS011;62112;45.638;11.714;2022-09-09T07:33:06;8.23;;;3.80;;
71671;SDS011;62112;45.638;11.714;2022-09-09T07:35:32;8.77;;;4.10;;
71671;SDS011;62112;45.638;11.714;2022-09-09T07:38:00;8.50;;;4.25;;
71671;SDS011;62112;45.638;11.714;2022-09-09T07:40:26;8.43;;;3.38;;
71671;SDS011;62112;45.638;11.714;2022-09-09T07:42:52;8.95;;;4.00;;
71671;SDS011;62112;45.638;11.714;2022-09-09T07:45:18;6.93;;;3.03;;
71671;SDS011;62112;45.638;11.714;2022-09-09T07:47:44;5.75;;;3.10;;
71671;SDS011;62112;45.638;11.714;2022-09-09T07:50:10;7.35;;;3.40;;
71671;SDS011;62112;45.638;11.714;2022-09-09T07:52:36;8.52;;;3.50;;
71671;SDS011;62112;45.638;11.714;2022-09-09T07:55:02;9.20;;;3.37;;
71671;SDS011;62112;45.638;11.714;2022-09-09T07:57:29;9.35;;;3.50;;
71671;SDS011;62112;45.638;11.714;2022-09-09T07:59:56;11.15;;;3.25;;
71671;SDS011;62112;45.638;11.714;2022-09-09T08:02:22;10.85;;;3.50;;
71671;SDS011;62112;45.638;11.714;2022-09-09T08:04:49;8.97;;;3.57;;
71671;SDS011;62112;45.638;11.714;2022-09-09T08:07:16;8.63;;;3.47;;
71671;SDS011;62112;45.638;11.714;2022-09-09T08:09:42;8.48;;;3.50;;
71671;SDS011;62112;45.638;11.714;2022-09-09T08:12:09;9.25;;;3.55;;
71671;SDS011;62112;45.638;11.714;2022-09-09T08:14:38;9.23;;;3.50;;
71671;SDS011;62112;45.638;11.714;2022-09-09T08:17:05;7.63;;;3.37;;
71671;SDS011;62112;45.638;11.714;2022-09-09T08:19:31;9.48;;;3.30;;
71671;SDS011;62112;45.638;11.714;2022-09-09T08:22:00;9.48;;;3.65;;
71671;SDS011;62112;45.638;11.714;2022-09-09T08:24:27;9.00;;;3.65;;
71671;SDS011;62112;45.638;11.714;2022-09-09T08:26:54;9.60;;;3.63;;
71671;SDS011;62112;45.638;11.714;2022-09-09T08:29:25;9.38;;;3.97;;
71671;SDS011;62112;45.638;11.714;2022-09-09T08:31:57;6.68;;;3.50;;
71671;SDS011;62112;45.638;11.714;2022-09-09T08:34:24;7.95;;;3.42;;
71671;SDS011;62112;45.638;11.714;2022-09-09T08:36:52;8.40;;;3.63;;
71671;SDS011;62112;45.638;11.714;2022-09-09T08:39:19;8.87;;;3.57;;
71671;SDS011;62112;45.638;11.714;2022-09-09T08:58:19;7.72;;;3.40;;
71671;SDS011;62112;45.638;11.714;2022-09-09T09:04:01;7.22;;;3.10;;
71671;SDS011;62112;45.638;11.714;2022-09-09T09:06:54;7.33;;;3.27;;
71671;SDS011;62112;45.638;11.714;2022-09-09T09:09:38;7.85;;;3.17;;
71671;SDS011;62112;45.638;11.714;2022-09-09T09:12:15;8.40;;;3.30;;
71671;SDS011;62112;45.638;11.714;2022-09-09T09:14:46;7.20;;;3.20;;
71671;SDS011;62112;45.638;11.714;2022-09-09T09:17:17;8.55;;;3.17;;
71671;SDS011;62112;45.638;11.714;2022-09-09T09:19:46;8.13;;;3.30;;
71671;SDS011;62112;45.638;11.714;2022-09-09T09:22:22;8.57;;;3.85;;
71671;SDS011;62112;45.638;11.714;2022-09-09T09:25:05;9.02;;;3.65;;
71671;SDS011;62112;45.638;11.714;2022-09-09T09:28:02;8.25;;;3.30;;
71671;SDS011;62112;45.638;11.714;2022-09-09T09:30:44;8.57;;;3.50;;
71671;SDS011;62112;45.638;11.714;2022-09-09T09:33:33;6.03;;;3.10;;
71671;SDS011;62112;45.638;11.714;2022-09-09T09:36:19;7.28;;;3.17;;
71671;SDS011;62112;45.638;11.714;2022-09-09T09:38:56;9.38;;;3.38;;
71671;SDS011;62112;45.638;11.714;2022-09-09T09:41:34;7.90;;;3.30;;
71671;SDS011;62112;45.638;11.714;2022-09-09T09:44:04;8.32;;;3.70;;
71671;SDS011;62112;45.638;11.714;2022-09-09T09:46:33;7.70;;;3.20;;
71671;SDS011;62112;45.638;11.714;2022-09-09T09:49:00;6.25;;;3.20;;
71671;SDS011;62112;45.638;11.714;2022-09-09T09:51:28;7.75;;;3.35;;
71671;SDS011;62112;45.638;11.714;2022-09-09T09:57:11;5.78;;;2.88;;
71671;SDS011;62112;45.638;11.714;2022-09-09T09:59:40;6.27;;;2.43;;
71671;SDS011;62112;45.638;11.714;2022-09-09T10:02:16;7.28;;;2.75;;
71671;SDS011;62112;45.638;11.714;2022-09-09T10:04:43;5.68;;;2.50;;
71671;SDS011;62112;45.638;11.714;2022-09-09T10:07:13;5.90;;;2.70;;
71671;SDS011;62112;45.638;11.714;2022-09-09T10:09:46;8.35;;;3.10;;
71671;SDS011;62112;45.638;11.714;2022-09-09T10:22:51;6.07;;;2.60;;
71671;SDS011;62112;45.638;11.714;2022-09-09T10:33:50;6.55;;;2.95;;
71671;SDS011;62112;45.638;11.714;2022-09-09T10:36:25;5.90;;;2.67;;
71671;SDS011;62112;45.638;11.714;2022-09-09T10:39:12;5.40;;;2.40;;
71671;SDS011;62112;45.638;11.714;2022-09-09T10:41:48;5.57;;;2.70;;
71671;SDS011;62112;45.638;11.714;2022-09-09T10:52:58;5.50;;;2.00;;
71671;SDS011;62112;45.638;11.714;2022-09-09T10:55:53;8.02;;;2.60;;
71671;SDS011;62112;45.638;11.714;2022-09-09T10:58:29;4.85;;;2.30;;
71671;SDS011;62112;45.638;11.714;2022-09-09T11:01:10;5.43;;;2.50;;
71671;SDS011;62112;45.638;11.714;2022-09-09T11:03:43;7.83;;;2.60;;
71671;SDS011;62112;45.638;11.714;2022-09-09T11:06:16;4.70;;;2.20;;
71671;SDS011;62112;45.638;11.714;2022-09-09T11:08:49;6.43;;;2.40;;
71671;SDS011;62112;45.638;11.714;2022-09-09T11:13:55;5.22;;;2.35;;
71671;SDS011;62112;45.638;11.714;2022-09-09T11:19:24;4.47;;;2.20;;
71671;SDS011;62112;45.638;11.714;2022-09-09T11:21:56;5.07;;;1.98;;
71671;SDS011;62112;45.638;11.714;2022-09-09T11:26:57;6.50;;;2.30;;
71671;SDS011;62112;45.638;11.714;2022-09-09T11:38:16;6.70;;;2.33;;
71671;SDS011;62112;45.638;11.714;2022-09-09T11:40:46;6.50;;;2.30;;
71671;SDS011;62112;45.638;11.714;2022-09-09T11:43:22;4.90;;;2.30;;
71671;SDS011;62112;45.638;11.714;2022-09-09T11:45:54;6.43;;;2.30;;
71671;SDS011;62112;45.638;11.714;2022-09-09T11:53:32;6.17;;;2.17;;
71671;SDS011;62112;45.638;11.714;2022-09-09T11:56:04;6.75;;;2.30;;
71671;SDS011;62112;45.638;11.714;2022-09-09T11:58:33;7.70;;;2.50;;
71671;SDS011;62112;45.638;11.714;2022-09-09T12:01:15;5.47;;;2.45;;
71671;SDS011;62112;45.638;11.714;2022-09-09T12:12:07;5.90;;;2.30;;
71671;SDS011;62112;45.638;11.714;2022-09-09T12:17:23;8.40;;;2.80;;
71671;SDS011;62112;45.638;11.714;2022-09-09T12:20:08;6.37;;;2.70;;
71671;SDS011;62112;45.638;11.714;2022-09-09T12:25:21;9.40;;;3.03;;
71671;SDS011;62112;45.638;11.714;2022-09-09T12:33:39;7.97;;;2.70;;
71671;SDS011;62112;45.638;11.714;2022-09-09T12:36:11;8.00;;;2.60;;
71671;SDS011;62112;45.638;11.714;2022-09-09T12:38:44;9.98;;;3.10;;
71671;SDS011;62112;45.638;11.714;2022-09-09T12:43:49;7.47;;;2.40;;
71671;SDS011;62112;45.638;11.714;2022-09-09T12:46:32;6.77;;;1.90;;
71671;SDS011;62112;45.638;11.714;2022-09-09T12:52:00;7.88;;;2.25;;
71671;SDS011;62112;45.638;11.714;2022-09-09T12:54:35;6.57;;;2.20;;
71671;SDS011;62112;45.638;11.714;2022-09-09T12:57:03;6.20;;;2.15;;
71671;SDS011;62112;45.638;11.714;2022-09-09T12:59:37;8.20;;;2.23;;
71671;SDS011;62112;45.638;11.714;2022-09-09T13:02:24;8.18;;;2.30;;
71671;SDS011;62112;45.638;11.714;2022-09-09T13:04:52;5.72;;;2.00;;
71671;SDS011;62112;45.638;11.714;2022-09-09T13:07:29;6.53;;;2.15;;
71671;SDS011;62112;45.638;11.714;2022-09-09T13:09:55;5.65;;;2.10;;
71671;SDS011;62112;45.638;11.714;2022-09-09T13:12:22;5.67;;;1.90;;
71671;SDS011;62112;45.638;11.714;2022-09-09T13:14:50;6.88;;;2.20;;
71671;SDS011;62112;45.638;11.714;2022-09-09T13:17:23;6.00;;;2.00;;
71671;SDS011;62112;45.638;11.714;2022-09-09T13:19:52;5.70;;;2.10;;
71671;SDS011;62112;45.638;11.714;2022-09-09T13:22:23;5.82;;;2.20;;
71671;SDS011;62112;45.638;11.714;2022-09-09T13:24:58;5.00;;;1.87;;
71671;SDS011;62112;45.638;11.714;2022-09-09T13:27:55;7.38;;;1.83;;
71671;SDS011;62112;45.638;11.714;2022-09-09T13:30:34;5.75;;;2.00;;
71671;SDS011;62112;45.638;11.714;2022-09-09T13:38:56;4.70;;;1.60;;
71671;SDS011;62112;45.638;11.714;2022-09-09T13:41:42;5.40;;;1.77;;
71671;SDS011;62112;45.638;11.714;2022-09-09T13:44:23;5.00;;;1.60;;
71671;SDS011;62112;45.638;11.714;2022-09-09T13:47:17;5.63;;;1.60;;
71671;SDS011;62112;45.638;11.714;2022-09-09T13:49:48;5.22;;;1.52;;
71671;SDS011;62112;45.638;11.714;2022-09-09T13:52:15;3.97;;;1.50;;
71671;SDS011;62112;45.638;11.714;2022-09-09T13:54:43;6.78;;;1.90;;
71671;SDS011;62112;45.638;11.714;2022-09-09T13:57:17;3.72;;;1.50;;
71671;SDS011;62112;45.638;11.714;2022-09-09T13:59:46;4.40;;;1.40;;
71671;SDS011;62112;45.638;11.714;2022-09-09T14:02:12;4.13;;;1.30;;
71671;SDS011;62112;45.638;11.714;2022-09-09T14:04:38;3.77;;;1.30;;
71671;SDS011;62112;45.638;11.714;2022-09-09T14:07:08;4.57;;;1.20;;
71671;SDS011;62112;45.638;11.714;2022-09-09T14:09:39;4.00;;;1.45;;
71671;SDS011;62112;45.638;11.714;2022-09-09T14:12:05;5.22;;;1.50;;
71671;SDS011;62112;45.638;11.714;2022-09-09T14:14:39;4.97;;;1.30;;
71671;SDS011;62112;45.638;11.714;2022-09-09T14:17:04;3.83;;;1.10;;
71671;SDS011;62112;45.638;11.714;2022-09-09T14:19:31;4.43;;;1.27;;
71671;SDS011;62112;45.638;11.714;2022-09-09T14:21:57;5.68;;;1.38;;
71671;SDS011;62112;45.638;11.714;2022-09-09T14:24:23;4.28;;;1.35;;
71671;SDS011;62112;45.638;11.714;2022-09-09T14:26:50;4.23;;;1.30;;
71671;SDS011;62112;45.638;11.714;2022-09-09T14:29:16;6.22;;;1.20;;
71671;SDS011;62112;45.638;11.714;2022-09-09T14:31:42;4.82;;;1.50;;
71671;SDS011;62112;45.638;11.714;2022-09-09T14:34:08;4.65;;;1.38;;
71671;SDS011;62112;45.638;11.714;2022-09-09T14:36:35;5.45;;;1.42;;
71671;SDS011;62112;45.638;11.714;2022-09-09T14:39:00;3.10;;;1.30;;
71671;SDS011;62112;45.638;11.714;2022-09-09T14:41:26;4.78;;;1.20;;
71671;SDS011;62112;45.638;11.714;2022-09-09T14:43:54;3.25;;;1.35;;
71671;SDS011;62112;45.638;11.714;2022-09-09T14:46:20;2.40;;;1.20;;
71671;SDS011;62112;45.638;11.714;2022-09-09T14:48:46;5.22;;;1.50;;
71671;SDS011;62112;45.638;11.714;2022-09-09T14:51:17;5.45;;;1.40;;
71671;SDS011;62112;45.638;11.714;2022-09-09T14:53:45;3.50;;;1.50;;
71671;SDS011;62112;45.638;11.714;2022-09-09T14:56:13;6.75;;;1.40;;
71671;SDS011;62112;45.638;11.714;2022-09-09T14:58:40;4.70;;;1.50;;
71671;SDS011;62112;45.638;11.714;2022-09-09T15:01:07;4.15;;;1.48;;
71671;SDS011;62112;45.638;11.714;2022-09-09T15:03:38;3.83;;;1.40;;
71671;SDS011;62112;45.638;11.714;2022-09-09T15:06:08;4.45;;;1.55;;
71671;SDS011;62112;45.638;11.714;2022-09-09T15:08:36;3.85;;;1.50;;
71671;SDS011;62112;45.638;11.714;2022-09-09T15:11:03;4.13;;;1.50;;
71671;SDS011;62112;45.638;11.714;2022-09-09T15:13:32;4.80;;;1.60;;
71671;SDS011;62112;45.638;11.714;2022-09-09T15:16:06;3.88;;;1.50;;
71671;SDS011;62112;45.638;11.714;2022-09-09T15:18:34;4.05;;;1.60;;
71671;SDS011;62112;45.638;11.714;2022-09-09T15:21:03;3.85;;;1.60;;
71671;SDS011;62112;45.638;11.714;2022-09-09T15:23:33;4.37;;;1.67;;
71671;SDS011;62112;45.638;11.714;2022-09-09T15:26:00;4.63;;;1.65;;
71671;SDS011;62112;45.638;11.714;2022-09-09T15:28:27;4.03;;;1.50;;
71671;SDS011;62112;45.638;11.714;2022-09-09T15:30:53;4.05;;;1.50;;
71671;SDS011;62112;45.638;11.714;2022-09-09T15:33:21;3.50;;;1.48;;
71671;SDS011;62112;45.638;11.714;2022-09-09T15:35:48;4.30;;;1.50;;
71671;SDS011;62112;45.638;11.714;2022-09-09T15:38:15;3.67;;;1.70;;
71671;SDS011;62112;45.638;11.714;2022-09-09T15:40:42;4.10;;;1.60;;
71671;SDS011;62112;45.638;11.714;2022-09-09T15:43:08;3.70;;;1.60;;
71671;SDS011;62112;45.638;11.714;2022-09-09T15:45:35;5.97;;;1.52;;
71671;SDS011;62112;45.638;11.714;2022-09-09T15:48:02;4.00;;;1.50;;
71671;SDS011;62112;45.638;11.714;2022-09-09T15:50:29;3.92;;;1.65;;
71671;SDS011;62112;45.638;11.714;2022-09-09T15:52:58;4.35;;;1.80;;
71671;SDS011;62112;45.638;11.714;2022-09-09T15:55:25;5.22;;;1.73;;
71671;SDS011;62112;45.638;11.714;2022-09-09T15:57:51;4.57;;;1.60;;
71671;SDS011;62112;45.638;11.714;2022-09-09T16:00:22;4.10;;;1.42;;
71671;SDS011;62112;45.638;11.714;2022-09-09T16:02:48;5.05;;;1.58;;
71671;SDS011;62112;45.638;11.714;2022-09-09T16:05:14;4.75;;;1.50;;
71671;SDS011;62112;45.638;11.714;2022-09-09T16:07:40;3.35;;;1.33;;
71671;SDS011;62112;45.638;11.714;2022-09-09T16:10:07;4.33;;;1.50;;
71671;SDS011;62112;45.638;11.714;2022-09-09T16:12:34;5.22;;;1.80;;
71671;SDS011;62112;45.638;11.714;2022-09-09T16:15:00;3.78;;;1.40;;
71671;SDS011;62112;45.638;11.714;2022-09-09T16:17:26;3.92;;;1.50;;
71671;SDS011;62112;45.638;11.714;2022-09-09T16:19:52;5.50;;;1.60;;
71671;SDS011;62112;45.638;11.714;2022-09-09T16:22:19;4.63;;;1.60;;
71671;SDS011;62112;45.638;11.714;2022-09-09T16:24:45;4.03;;;2.10;;
71671;SDS011;62112;45.638;11.714;2022-09-09T16:27:11;5.43;;;2.00;;
71671;SDS011;62112;45.638;11.714;2022-09-09T16:29:37;4.93;;;2.40;;
71671;SDS011;62112;45.638;11.714;2022-09-09T16:32:03;5.40;;;2.70;;
71671;SDS011;62112;45.638;11.714;2022-09-09T16:34:29;6.78;;;3.10;;
71671;SDS011;62112;45.638;11.714;2022-09-09T16:36:55;7.28;;;3.28;;
71671;SDS011;62112;45.638;11.714;2022-09-09T16:39:21;9.87;;;3.50;;
71671;SDS011;62112;45.638;11.714;2022-09-09T16:41:47;6.50;;;3.75;;
71671;SDS011;62112;45.638;11.714;2022-09-09T16:44:14;7.22;;;3.90;;
71671;SDS011;62112;45.638;11.714;2022-09-09T16:46:43;7.43;;;4.03;;
71671;SDS011;62112;45.638;11.714;2022-09-09T16:49:11;8.50;;;4.78;;
71671;SDS011;62112;45.638;11.714;2022-09-09T16:51:39;7.73;;;5.10;;
71671;SDS011;62112;45.638;11.714;2022-09-09T16:54:09;9.55;;;5.25;;
71671;SDS011;62112;45.638;11.714;2022-09-09T16:56:36;8.38;;;5.70;;
71671;SDS011;62112;45.638;11.714;2022-09-09T16:59:05;10.40;;;5.57;;
71671;SDS011;62112;45.638;11.714;2022-09-09T17:01:33;12.45;;;5.50;;
71671;SDS011;62112;45.638;11.714;2022-09-09T17:04:03;10.97;;;5.00;;
71671;SDS011;62112;45.638;11.714;2022-09-09T17:06:31;8.00;;;4.32;;
71671;SDS011;62112;45.638;11.714;2022-09-09T17:09:08;12.88;;;5.20;;
71671;SDS011;62112;45.638;11.714;2022-09-09T17:11:35;11.52;;;5.03;;
71671;SDS011;62112;45.638;11.714;2022-09-09T17:14:02;9.77;;;5.10;;
71671;SDS011;62112;45.638;11.714;2022-09-09T17:16:30;8.57;;;4.53;;
71671;SDS011;62112;45.638;11.714;2022-09-09T17:18:59;11.63;;;4.95;;
71671;SDS011;62112;45.638;11.714;2022-09-09T17:21:26;8.77;;;4.75;;
71671;SDS011;62112;45.638;11.714;2022-09-09T17:23:53;11.88;;;5.07;;
71671;SDS011;62112;45.638;11.714;2022-09-09T17:26:20;10.02;;;4.72;;
71671;SDS011;62112;45.638;11.714;2022-09-09T17:28:47;12.20;;;5.70;;
71671;SDS011;62112;45.638;11.714;2022-09-09T17:31:14;13.10;;;5.25;;
71671;SDS011;62112;45.638;11.714;2022-09-09T17:33:44;14.50;;;6.25;;
71671;SDS011;62112;45.638;11.714;2022-09-09T17:36:17;11.32;;;6.00;;
71671;SDS011;62112;45.638;11.714;2022-09-09T17:38:53;14.30;;;6.73;;